• Join FlightAware (Why Join?)
  • Login
  • US Flag 
09:19AM EDT


 

Airport Tracker/Info


-or-


 

Live Flight TrackerFlight Track Log ✈ DAL1636 ✈ 07-Apr-2013 ✈ KDTW - KBWI

Flight Track Log - Related Links

Times and Time Zones

All times are in EDT time to prevent confusion due to time zone crossing. See the DAL1636 flight status page for this flight to view local times or setup timezone preferences in your user account.

Time Position Orientation Groundspeed Altitude Reporting Facility
EDT Latitude Longitude Course Direction KTS MPH feet Rate Location/Type
09:53PM 42.2028 -83.3539 199° South 166 191 1,600  Level FAA TRACON SMA TRACON (SMA)
09:53PM 42.1858 -83.3617 199° South 198 228 2,300 2,520 Climbing FAA TRACON SMA TRACON (SMA)
09:53PM 42.1633 -83.3686 193° South 233 268 3,300 3,180 Climbing FAA TRACON SMA TRACON (SMA)
09:54PM 42.1433 -83.3742 192° South 238 274 4,500 3,360 Climbing FAA TRACON SMA TRACON (SMA)
09:54PM 42.1253 -83.3792 192° South 244 281 5,500 3,300 Climbing FAA TRACON SMA TRACON (SMA)
09:54PM 42.0978 -83.3797 181° South 274 315 6,700 3,000 Climbing FAA TRACON SMA TRACON (SMA)
09:55PM 42.0814 -83.3711 159° South 288 331 7,500 3,180 Climbing FAA TRACON SMA TRACON (SMA)
09:55PM 42.0575 -83.3308 129° Southeast 304 350 9,000 3,780 Climbing FAA TRACON SMA TRACON (SMA)
09:55PM 42.0483 -83.2867 106° East 323 372 10,300 3,000 Climbing FAA TRACON SMA TRACON (SMA)
09:56PM 42.0439 -83.2589 102° East 334 384 10,800 1,620 Climbing FAA TRACON SMA TRACON (SMA)
09:56PM 42.0439 -83.2078 90° East 370 426 11,300 1,740 Climbing FAA TRACON SMA TRACON (SMA)
09:56PM 42.0464 -83.1639 86° East 387 445 12,000 2,580 Climbing FAA TRACON SMA TRACON (SMA)
09:57PM 42.0494 -83.1192 85° East 389 448 13,000 2,700 Climbing FAA TRACON SMA TRACON (SMA)
09:57PM 42.0525 -83.0622 86° East 399 459 13,800 2,340 Climbing FAA TRACON SMA TRACON (SMA)
09:57PM 42.0547 -83.0136 86° East 422 486 14,600 2,760 Climbing FAA TRACON SMA TRACON (SMA)
09:58PM 42.0578 -82.9650 85° East 427 491 15,600 3,300 Climbing FAA TRACON SMA TRACON (SMA)
09:58PM 42.0619 -82.9036 85° East 431 496 16,800 3,120 Climbing FAA TRACON SMA TRACON (SMA)
09:58PM 42.0650 -82.8542 85° East 431 496 17,700 2,700 Climbing FAA TRACON SMA TRACON (SMA)
09:59PM 42.0692 -82.7917 85° East 435 501 18,600 2,340 Climbing FAA TRACON SMA TRACON (SMA)
09:59PM 42.0725 -82.7411 85° East 440 506 19,300 2,100 Climbing FAA TRACON SMA TRACON (SMA)
09:59PM 42.0758 -82.6897 85° East 446 513 20,000 2,220 Climbing FAA TRACON SMA TRACON (SMA)
10:00PM 42.0803 -82.6242 85° East 455 524 20,800 2,220 Climbing FAA TRACON SMA TRACON (SMA)
10:00PM 42.0836 -82.5706 85° East 462 532 21,500 2,400 Climbing FAA TRACON SMA TRACON (SMA)
10:00PM 42.0867 -82.5169 86° East 466 536 22,400 2,340 Climbing FAA TRACON SMA TRACON (SMA)
10:01PM 42.0831 -82.4494 94° East 474 545 23,100 2,280 Climbing FAA TRACON SMA TRACON (SMA)
10:01PM 42.0764 -82.3964 100° East 468 539 23,900 780 Climbing FAA TRACON SMA TRACON (SMA)
10:02PM 42.0764 -82.3964 143° Southeast 468 539 23,900 2,100 Level FAA TRACON SMA TRACON (SMA)
10:02PM 42.0328 -82.1347 103° East 465 535 27,200 2,460 Climbing Cleveland Center
10:03PM 41.9553 -81.9989 127° Southeast 464 534 28,500 1,200 Climbing Cleveland Center
10:04PM 41.8481 -81.9017 146° Southeast 443 510 29,700 1,200 Climbing Cleveland Center
10:05PM 41.7575 -81.8106 143° Southeast 464 534 31,000 600 Climbing Cleveland Center
10:06PM 41.6522 -81.7086 144° Southeast 459 528 31,000  Level Cleveland Center
10:07PM 41.5511 -81.6069 143° Southeast 459 528 31,000  Level Cleveland Center
10:08PM 41.4433 -81.5056 145° Southeast 469 540 31,000  Level Cleveland Center
10:09PM 41.3275 -81.3961 145° Southeast 469 540 31,000  Level Cleveland Center
10:10PM 41.2219 -81.2953 144° Southeast 474 545 31,000  Level Cleveland Center
10:11PM 41.1161 -81.1978 145° Southeast 469 540 31,000  Level Cleveland Center
10:12PM 41.0103 -81.0978 145° Southeast 469 540 31,000  Level Cleveland Center
10:13PM 40.9169 -81.0064 143° Southeast 474 545 31,000  Level Cleveland Center
10:14PM 40.8108 -80.9069 145° Southeast 474 545 31,000  Level Cleveland Center
10:15PM 40.7047 -80.8078 145° Southeast 474 545 31,000  Level Cleveland Center
10:16PM 40.6008 -80.7117 145° Southeast 474 545 31,000  Level Cleveland Center
10:17PM 40.4967 -80.6131 144° Southeast 474 545 31,000  Level Cleveland Center
10:18PM 40.3881 -80.5178 146° Southeast 474 545 31,000  Level Cleveland Center
10:19PM 40.2858 -80.4089 141° Southeast 474 545 31,000  Level Cleveland Center
10:20PM 40.2042 -80.2461 123° Southeast 475 547 31,000  Level Cleveland Center
10:21PM 40.1369 -80.0997 121° Southeast 486 559 31,000  Level Cleveland Center
10:22PM 40.0675 -79.9456 120° Southeast 486 559 31,000  Level Cleveland Center
10:24PM 39.9542 -79.6975 121° Southeast 493 567 31,000 -120 Level Washington Center
10:25PM 39.8842 -79.5503 122° Southeast 487 560 30,800 -1,200 Descending Washington Center
10:26PM 39.8081 -79.3947 122° Southeast 494 568 28,600 -2,040 Descending Washington Center
10:27PM 39.7356 -79.2450 122° Southeast 494 568 26,700 -2,160 Descending Washington Center
10:28PM 39.6669 -79.0986 121° Southeast 488 562 24,300 -1,920 Descending Washington Center
10:29PM 39.6278 -78.9378 107° East 457 526 22,900 -1,380 Descending Washington Center
10:30PM 39.5900 -78.7933 109° East 462 532 21,600 -1,440 Descending Washington Center
10:31PM 39.5544 -78.6331 106° East 462 532 20,100 -1,320 Descending Washington Center
10:32PM 39.5208 -78.4783 106° East 457 526 19,000 -1,740 Descending Washington Center
10:33PM 39.4889 -78.3317 106° East 438 504 16,700 -2,040 Descending Washington Center
10:34PM 39.4567 -78.1853 106° East 431 496 15,000 -1,080 Descending Washington Center
10:35PM 39.4242 -78.0392 106° East 426 490 14,600 -1,020 Descending Washington Center
10:36PM 39.3917 -77.8983 107° East 421 484 13,000 -1,260 Descending Washington Center
10:37PM 39.3942 -77.7508 89° East 413 475 12,100 -540 Descending Washington Center
10:38PM 39.4111 -77.6250 80° East 391 450 12,000 -540 Descending Washington Center
10:39PM 39.4256 -77.5100 81° East 345 397 11,100 -780 Descending Washington Center
10:40PM 39.4397 -77.3947 81° East 332 382 10,500 -1,080 Descending Washington Center
10:40PM 39.4500 -77.3500 73° East 321 369 9,800 -1,920 Descending Potomac TRACON
10:41PM 39.4500 -77.2333 90° East 320 368 8,100 -1,320 Descending Potomac TRACON
10:42PM 39.4500 -77.1167 90° East 312 359 7,200 -840 Descending Potomac TRACON
10:43PM 39.4333 -77.0167 102° East 309 356 6,500 -1,080 Descending Potomac TRACON
10:45PM 39.4154 -76.8990 150° Southeast  Level FlightAware Approximate
10:45PM 39.3500 -76.8833 150° Southeast 233 268 4,000  Level Potomac TRACON
10:46PM 39.3000 -76.8833 180° South 213 245 3,200 -540 Descending Potomac TRACON
10:47PM 39.2333 -76.8833 180° South 186 214 3,000 -360 Descending Potomac TRACON
10:48PM 39.2000 -76.8500 142° Southeast 191 220 2,500 -660 Descending Potomac TRACON
10:49PM 39.1833 -76.7833 108° East 187 215 1,800 -840 Descending Potomac TRACON
10:50PM 39.1833 -76.7333 90° East 150 173 800 -960 Descending Potomac TRACON
10:52PM 39.1667 -76.6667 142° Southeast  Level FlightAware Approximate
10:59PM 39.1754 -76.6683 142° Southeast  Level Estimated
11:00PM 39.1754 -76.6683 142° Southeast  Level Estimated
11:01PM 39.1754 -76.6683 142° Southeast  Level Estimated
11:02PM 39.1754 -76.6683 142° Southeast  Level Estimated
11:03PM 39.1754 -76.6683 142° Southeast  Level Estimated